Time;durP1;ratioP1;P1;durP2;ratioP2;P2;SDS_P1;SDS_P2;PMS_P1;PMS_P2;Temp;Humidity;BMP_temperature;BMP_pressure;BME280_temperature;BME280_humidity;BME280_pressure;Samples;Min_cycle;Max_cycle;Signal;HPM_P1;HPM_P2
2023/05/03 00:00:08;;;;;;;6.97;4.43;;;;;;;5.12;61.08;102239.69;680380;29;1103;-85
2023/05/03 00:00:29;;;;;;;6.38;4.40;;;;;;;5.12;61.18;102244.88;685292;28;1392;-85
2023/05/03 00:00:49;;;;;;;7.03;4.80;;;;;;;5.15;61.21;102250.25;685603;28;1169;-85
2023/05/03 00:01:19;;;;;;;6.88;4.57;;;;;;;5.09;61.28;102239.44;677747;28;1294;-85
2023/05/03 00:01:42;;;;;;;6.05;4.03;;;;;;;5.17;61.66;102253.84;682960;29;1121;-85
2023/05/03 00:02:03;;;;;;;6.03;3.95;;;;;;;5.11;61.26;102245.66;680367;29;1159;-85
2023/05/03 00:02:23;;;;;;;5.10;3.88;;;;;;;5.09;61.08;102249.78;682843;29;973;-85
2023/05/03 00:02:44;;;;;;;5.70;4.03;;;;;;;5.15;61.54;102255.44;683081;29;1110;-85
2023/05/03 00:03:05;;;;;;;6.33;4.10;;;;;;;5.09;61.30;102244.63;682928;28;1151;-85
2023/05/03 00:03:27;;;;;;;7.38;4.60;;;;;;;5.07;61.28;102246.19;682824;28;1303;-85
2023/05/03 00:03:51;;;;;;;7.75;4.47;;;;;;;5.13;61.75;102257.00;685643;28;1048;-85
2023/05/03 00:04:13;;;;;;;8.60;4.57;;;;;;;5.06;61.26;102242.72;680336;28;1283;-85
2023/05/03 00:04:34;;;;;;;8.25;4.45;;;;;;;5.12;61.60;102255.22;682718;28;1091;-85
2023/05/03 00:04:54;;;;;;;7.50;4.55;;;;;;;5.04;61.37;102239.09;682953;28;1178;-85
2023/05/03 00:05:16;;;;;;;6.30;4.60;;;;;;;5.11;61.77;102256.00;682978;29;1040;-85
2023/05/03 00:05:37;;;;;;;5.88;4.68;;;;;;;5.05;61.57;102240.00;685605;28;1147;-85
2023/05/03 00:06:08;;;;;;;6.13;4.68;;;;;;;5.05;61.41;102242.59;682880;28;1267;-85
2023/05/03 00:06:30;;;;;;;7.68;4.40;;;;;;;5.04;61.67;102248.56;682782;28;1109;-85
2023/05/03 00:06:50;;;;;;;9.45;4.55;;;;;;;5.03;61.84;102241.59;685376;28;1471;-85
2023/05/03 00:07:11;;;;;;;9.52;4.47;;;;;;;4.99;61.29;102234.38;688284;28;1170;-85
2023/05/03 00:07:32;;;;;;;9.00;4.50;;;;;;;5.03;61.49;102246.78;682841;28;1136;-84
2023/05/03 00:07:52;;;;;;;7.00;4.20;;;;;;;5.04;61.44;102251.16;688271;28;1321;-85
2023/05/03 00:08:13;;;;;;;7.80;4.30;;;;;;;4.99;61.49;102237.88;683066;29;1043;-85
2023/05/03 00:08:33;;;;;;;6.27;4.40;;;;;;;5.00;61.55;102243.94;682855;28;1227;-85
2023/05/03 00:08:54;;;;;;;6.38;4.38;;;;;;;4.97;61.58;102238.53;680780;28;1334;-85
2023/05/03 00:09:15;;;;;;;7.28;4.30;;;;;;;4.96;61.36;102234.16;680243;29;1129;-85
2023/05/03 00:09:36;;;;;;;8.52;4.30;;;;;;;5.03;61.93;102246.78;680325;28;1181;-85
2023/05/03 00:09:56;;;;;;;10.07;4.57;;;;;;;4.97;61.59;102233.38;680307;29;1138;-85
2023/05/03 00:10:18;;;;;;;9.57;4.60;;;;;;;4.93;61.64;102238.28;680348;29;1263;-84
2023/05/03 00:10:38;;;;;;;9.05;4.80;;;;;;;4.95;61.79;102232.38;680235;29;1506;-85
2023/05/03 00:10:59;;;;;;;6.82;4.57;;;;;;;4.93;61.45;102233.13;677671;29;1360;-85
2023/05/03 00:11:20;;;;;;;5.73;4.57;;;;;;;4.97;61.46;102234.25;680147;28;1201;-85
2023/05/03 00:11:40;;;;;;;5.70;4.40;;;;;;;5.04;61.78;102254.63;682982;28;1138;-85
2023/05/03 00:12:01;;;;;;;6.63;4.50;;;;;;;4.96;61.14;102241.91;680347;29;1171;-85
2023/05/03 00:12:22;;;;;;;6.55;4.30;;;;;;;4.91;61.78;102224.34;680311;28;1308;-85
2023/05/03 00:12:43;;;;;;;6.78;4.35;;;;;;;4.92;61.50;102236.50;682943;28;1915;-85
2023/05/03 00:13:03;;;;;;;6.88;4.38;;;;;;;4.94;61.49;102236.63;680232;29;1343;-84
2023/05/03 00:13:24;;;;;;;7.23;4.40;;;;;;;4.89;61.48;102230.19;685492;28;1245;-85
2023/05/03 00:13:45;;;;;;;6.20;4.30;;;;;;;4.89;61.73;102231.09;680254;28;1240;-85
2023/05/03 00:14:06;;;;;;;5.80;4.22;;;;;;;4.92;61.52;102233.91;682858;28;1234;-85
2023/05/03 00:14:26;;;;;;;5.55;4.35;;;;;;;4.88;61.81;102229.31;680206;28;1171;-85
2023/05/03 00:14:47;;;;;;;5.82;4.38;;;;;;;4.96;61.83;102244.50;682891;29;1132;-85
2023/05/03 00:15:09;;;;;;;5.30;4.28;;;;;;;4.89;61.57;102228.53;685503;28;1655;-85
2023/05/03 00:15:30;;;;;;;5.65;4.38;;;;;;;4.98;61.50;102241.25;680054;29;1195;-84
2023/05/03 00:15:51;;;;;;;5.80;4.40;;;;;;;4.92;61.79;102231.31;683002;29;985;-85
2023/05/03 00:16:11;;;;;;;5.80;4.13;;;;;;;4.86;62.06;102228.31;685658;28;1162;-85
2023/05/03 00:16:32;;;;;;;6.65;3.92;;;;;;;4.91;61.43;102239.88;682837;28;1051;-85
2023/05/03 00:16:52;;;;;;;7.37;4.23;;;;;;;4.99;61.57;102252.50;682672;29;1114;-85
2023/05/03 00:17:13;;;;;;;7.22;4.38;;;;;;;4.89;61.95;102231.09;677589;29;1190;-85
2023/05/03 00:17:34;;;;;;;6.03;4.50;;;;;;;4.89;62.00;102231.09;680085;29;1185;-85
2023/05/03 00:17:55;;;;;;;7.90;4.20;;;;;;;4.96;61.80;102249.69;682749;28;1253;-85
2023/05/03 00:18:16;;;;;;;8.07;4.20;;;;;;;4.88;61.84;102234.47;680234;29;1451;-85
2023/05/03 00:18:37;;;;;;;8.37;4.13;;;;;;;4.90;61.75;102232.00;682966;28;1131;-85
2023/05/03 00:18:58;;;;;;;5.70;3.90;;;;;;;4.91;61.60;102239.88;677581;28;1493;-85
2023/05/03 00:19:18;;;;;;;5.72;4.10;;;;;;;4.86;61.60;102227.38;684986;28;1368;-85
2023/05/03 00:19:39;;;;;;;6.50;4.20;;;;;;;4.92;61.86;102236.50;680170;29;1037;-84
2023/05/03 00:20:00;;;;;;;7.80;4.50;;;;;;;4.90;61.43;102238.06;680306;29;1243;-85
2023/05/03 00:20:21;;;;;;;7.63;4.35;;;;;;;4.84;61.62;102237.63;680169;29;1107;-85
2023/05/03 00:20:41;;;;;;;6.45;4.40;;;;;;;4.80;61.85;102235.59;682989;28;1275;-85
2023/05/03 00:21:02;;;;;;;5.50;4.30;;;;;;;4.80;61.78;102245.94;682905;29;1152;-85
2023/05/03 00:21:23;;;;;;;5.13;4.32;;;;;;;4.79;61.79;102234.69;682791;28;1149;-85
2023/05/03 00:21:44;;;;;;;5.18;4.43;;;;;;;4.79;61.84;102238.97;680317;29;1113;-85
2023/05/03 00:22:06;;;;;;;5.35;4.45;;;;;;;4.78;61.69;102238.06;682928;28;1241;-85
2023/05/03 00:22:26;;;;;;;5.25;4.35;;;;;;;4.84;61.71;102247.97;680120;28;1272;-85
2023/05/03 00:22:47;;;;;;;5.53;4.23;;;;;;;4.81;61.51;102241.66;680256;29;1195;-85
2023/05/03 00:23:08;;;;;;;5.30;4.05;;;;;;;4.77;61.54;102240.53;680245;29;1187;-85
2023/05/03 00:23:28;;;;;;;6.63;4.05;;;;;;;4.84;61.73;102252.25;685411;28;1167;-85
2023/05/03 00:23:49;;;;;;;6.40;4.10;;;;;;;4.79;61.95;102244.16;682946;28;1271;-85
2023/05/03 00:24:10;;;;;;;6.63;4.20;;;;;;;4.70;61.73;102227.91;682963;29;1431;-84
2023/05/03 00:24:31;;;;;;;6.88;4.50;;;;;;;4.82;61.62;102251.22;682793;28;1170;-85
2023/05/03 00:24:51;;;;;;;7.95;4.55;;;;;;;4.80;61.81;102245.94;677695;29;902;-84
2023/05/03 00:25:12;;;;;;;8.25;4.65;;;;;;;4.74;61.90;102233.47;682936;28;1091;-85
2023/05/03 00:25:32;;;;;;;6.77;4.37;;;;;;;4.76;61.96;102246.47;685497;28;1302;-85
2023/05/03 00:25:55;;;;;;;7.05;4.30;;;;;;;4.72;61.58;102237.59;677618;29;1326;-85
2023/05/03 00:26:15;;;;;;;7.07;4.20;;;;;;;4.68;61.71;102226.91;682981;28;1076;-85
2023/05/03 00:26:36;;;;;;;7.38;4.30;;;;;;;4.70;61.69;102236.56;682483;28;1208;-85
2023/05/03 00:26:57;;;;;;;5.28;4.30;;;;;;;4.75;61.92;102244.69;685431;28;1297;-85
2023/05/03 00:27:18;;;;;;;6.15;4.40;;;;;;;4.68;61.85;102234.66;682773;28;1184;-85
2023/05/03 00:27:38;;;;;;;6.47;4.38;;;;;;;4.65;61.81;102231.06;685509;28;1291;-85
2023/05/03 00:27:59;;;;;;;7.57;4.50;;;;;;;4.64;62.00;102231.84;682880;28;1032;-85
2023/05/03 00:28:20;;;;;;;8.70;4.53;;;;;;;4.62;61.86;102223.09;682895;28;1095;-85
2023/05/03 00:29:05;;;;;;;9.93;4.57;;;;;;;4.76;61.95;102249.97;682895;28;1301;-85
2023/05/03 00:29:26;;;;;;;6.82;4.60;;;;;;;4.69;62.25;102233.88;682636;28;1469;-85
2023/05/03 00:29:49;;;;;;;6.35;4.63;;;;;;;4.69;61.99;102236.44;685446;28;1265;-85
2023/05/03 00:30:10;;;;;;;6.13;4.43;;;;;;;4.68;62.01;102235.56;685611;28;977;-85
2023/05/03 00:30:53;;;;;;;5.80;4.32;;;;;;;4.75;62.43;102242.09;680236;29;1218;-85
2023/05/03 00:31:13;;;;;;;5.20;4.10;;;;;;;4.72;62.23;102242.75;677601;29;1042;-85
2023/05/03 00:31:34;;;;;;;4.70;4.10;;;;;;;4.64;62.17;102231.84;679911;29;1079;-85
2023/05/03 00:31:55;;;;;;;5.25;4.40;;;;;;;4.62;62.14;102230.84;682548;28;1188;-85
2023/05/03 00:32:15;;;;;;;5.80;4.60;;;;;;;4.74;62.27;102248.06;685537;28;1210;-85
2023/05/03 00:32:36;;;;;;;6.80;4.40;;;;;;;4.68;61.88;102234.66;682686;28;1887;-85
2023/05/03 00:32:57;;;;;;;6.70;4.20;;;;;;;4.67;61.91;102233.78;680567;28;1272;-85
2023/05/03 00:33:17;;;;;;;8.63;4.40;;;;;;;4.61;62.31;102225.53;677785;29;1118;-85
2023/05/03 00:33:38;;;;;;;8.80;4.70;;;;;;;4.61;61.98;102229.00;680430;29;1180;-85
2023/05/03 00:33:59;;;;;;;9.70;4.90;;;;;;;4.61;61.77;102229.00;683150;28;1150;-85
2023/05/03 00:34:20;;;;;;;8.23;4.80;;;;;;;4.60;62.26;102227.22;683075;28;1312;-85
2023/05/03 00:34:40;;;;;;;8.63;4.80;;;;;;;4.62;62.41;102235.09;683111;28;1133;-85
2023/05/03 00:35:01;;;;;;;8.13;4.80;;;;;;;4.62;62.28;102225.66;683313;28;1110;-85
2023/05/03 00:35:21;;;;;;;8.20;4.97;;;;;;;4.59;61.96;102220.25;685803;28;1001;-85
2023/05/03 00:35:43;;;;;;;6.45;4.82;;;;;;;4.67;62.16;102240.63;683422;28;1008;-85
2023/05/03 00:36:10;;;;;;;7.15;4.88;;;;;;;4.63;61.89;102231.72;680535;28;1396;-85
2023/05/03 00:36:31;;;;;;;9.30;4.72;;;;;;;4.60;62.03;102227.22;680484;29;887;-85
2023/05/03 00:36:51;;;;;;;9.73;4.80;;;;;;;4.59;62.08;102224.53;683132;28;996;-84
2023/05/03 00:37:12;;;;;;;8.68;4.80;;;;;;;4.56;62.11;102219.13;683410;28;1231;-84
2023/05/03 00:37:33;;;;;;;7.00;4.83;;;;;;;4.59;62.05;102222.84;683402;28;1165;-84
2023/05/03 00:37:53;;;;;;;6.20;4.60;;;;;;;4.56;62.08;102220.03;680567;29;1306;-84
2023/05/03 00:38:14;;;;;;;7.22;4.80;;;;;;;4.60;61.89;102227.22;680922;29;1119;-85
2023/05/03 00:38:35;;;;;;;11.73;4.73;;;;;;;4.62;62.05;102236.00;680607;28;1206;-83
2023/05/03 00:38:56;;;;;;;13.93;4.60;;;;;;;4.61;61.96;102234.19;680686;28;1266;-85
2023/05/03 00:39:17;;;;;;;13.27;4.30;;;;;;;4.60;62.07;102231.50;683251;28;1208;-85
2023/05/03 00:39:37;;;;;;;8.13;4.15;;;;;;;4.54;62.06;102224.16;686072;28;1196;-85
2023/05/03 00:39:58;;;;;;;5.97;4.35;;;;;;;4.62;61.89;102237.69;683214;28;1199;-85
2023/05/03 00:40:18;;;;;;;6.00;4.60;;;;;;;4.54;62.03;102224.16;683043;28;1208;-84
2023/05/03 00:40:39;;;;;;;6.32;4.70;;;;;;;4.57;61.89;102227.00;678086;29;999;-85
2023/05/03 00:41:10;;;;;;;5.90;4.60;;;;;;;4.59;62.04;102234.88;680698;29;777;-83
2023/05/03 00:41:31;;;;;;;6.72;4.13;;;;;;;4.54;62.18;102225.84;685725;28;1112;-85
2023/05/03 00:41:56;;;;;;;6.23;3.97;;;;;;;4.62;61.81;102236.00;683119;28;1234;-84
2023/05/03 00:42:17;;;;;;;7.10;4.53;;;;;;;4.59;61.93;102235.75;685629;28;1278;-84
2023/05/03 00:42:37;;;;;;;8.55;5.10;;;;;;;4.59;61.84;102235.75;683111;28;1169;-85
2023/05/03 00:42:58;;;;;;;8.97;5.10;;;;;;;4.56;62.11;102235.53;680520;29;1221;-85
2023/05/03 00:43:18;;;;;;;7.20;4.90;;;;;;;4.52;62.27;102225.72;682946;29;1102;-84
2023/05/03 00:43:39;;;;;;;6.53;4.57;;;;;;;4.49;62.07;102223.81;683075;29;1062;-85
2023/05/03 00:44:00;;;;;;;6.68;4.53;;;;;;;4.60;62.17;102237.56;682916;28;1062;-85
2023/05/03 00:44:21;;;;;;;6.50;4.50;;;;;;;4.59;62.20;102240.94;680119;29;1061;-85
2023/05/03 00:44:41;;;;;;;6.40;4.40;;;;;;;4.54;62.46;102237.09;685724;28;969;-85
2023/05/03 00:45:04;;;;;;;5.22;4.25;;;;;;;4.56;62.37;102238.13;682935;28;1431;-85
2023/05/03 00:45:25;;;;;;;5.93;4.40;;;;;;;4.49;62.47;102228.97;680216;29;1226;-85
2023/05/03 00:45:46;;;;;;;7.88;4.90;;;;;;;4.45;62.44;102226.03;677695;29;1191;-85
2023/05/03 00:46:08;;;;;;;8.48;5.07;;;;;;;4.56;62.18;102239.78;680418;29;963;-85
2023/05/03 00:46:29;;;;;;;7.35;5.00;;;;;;;4.52;62.09;102237.00;682709;28;1125;-85
2023/05/03 00:46:51;;;;;;;8.82;4.90;;;;;;;4.59;62.37;102240.06;680214;29;1279;-85
2023/05/03 00:47:11;;;;;;;8.43;4.90;;;;;;;4.60;62.08;102247.91;682902;28;1071;-85
2023/05/03 00:47:32;;;;;;;9.63;5.00;;;;;;;4.59;62.23;102245.22;685484;28;1265;-85
2023/05/03 00:47:53;;;;;;;8.23;4.75;;;;;;;4.52;62.26;102244.75;688145;28;1331;-85
2023/05/03 00:48:16;;;;;;;8.15;4.80;;;;;;;4.51;62.07;102235.19;683024;28;1082;-85
2023/05/03 00:48:37;;;;;;;6.53;4.70;;;;;;;4.48;62.11;102234.06;677489;29;1557;-85
2023/05/03 00:48:57;;;;;;;7.53;4.80;;;;;;;4.49;62.33;102238.44;685514;28;1435;-85
2023/05/03 00:49:18;;;;;;;8.95;4.60;;;;;;;4.52;62.24;102244.75;682837;28;1478;-85
2023/05/03 00:49:40;;;;;;;8.93;4.63;;;;;;;4.45;62.22;102236.38;682879;28;1153;-85
2023/05/03 00:50:00;;;;;;;7.45;4.55;;;;;;;4.54;62.41;102246.53;680182;29;1282;-85
2023/05/03 00:50:21;;;;;;;5.93;4.75;;;;;;;4.53;62.41;102243.03;682794;28;1260;-85
2023/05/03 00:50:42;;;;;;;6.55;4.90;;;;;;;4.49;62.08;102238.44;682904;28;1244;-85
2023/05/03 00:51:05;;;;;;;7.32;5.13;;;;;;;4.49;62.30;102235.84;680298;29;1205;-85
2023/05/03 00:51:27;;;;;;;7.68;5.20;;;;;;;4.43;62.18;102222.44;682759;29;1469;-85
2023/05/03 00:51:48;;;;;;;6.30;4.82;;;;;;;4.54;62.27;102255.19;680214;28;1128;-85
2023/05/03 00:52:09;;;;;;;5.95;4.63;;;;;;;4.56;62.53;102248.47;682878;29;1247;-85
2023/05/03 00:52:30;;;;;;;6.35;4.70;;;;;;;4.46;62.33;102233.94;682646;29;2025;-85
2023/05/03 00:52:51;;;;;;;6.77;4.90;;;;;;;4.47;62.56;102230.56;685555;28;929;-85
2023/05/03 00:53:13;;;;;;;6.88;4.90;;;;;;;4.47;62.33;102232.25;680351;29;1203;-85
2023/05/03 00:53:33;;;;;;;8.20;4.78;;;;;;;4.54;62.47;102244.84;683028;28;1227;-85
2023/05/03 00:53:55;;;;;;;8.15;4.50;;;;;;;4.45;62.04;102231.22;685328;28;1344;-84
2023/05/03 00:54:16;;;;;;;7.93;4.47;;;;;;;4.50;62.59;102240.25;688160;28;1263;-85
2023/05/03 00:54:38;;;;;;;6.78;4.30;;;;;;;4.46;62.43;102238.19;682671;28;1244;-85
2023/05/03 00:54:59;;;;;;;6.22;4.43;;;;;;;4.55;62.29;102251.84;680215;28;1122;-85
2023/05/03 00:55:20;;;;;;;6.70;4.50;;;;;;;4.46;62.46;102238.19;682780;28;1270;-85
2023/05/03 00:55:42;;;;;;;7.38;4.80;;;;;;;4.41;62.32;102237.84;682855;28;1327;-85
2023/05/03 00:56:04;;;;;;;6.68;4.60;;;;;;;4.43;62.35;102233.72;680155;29;1084;-85
2023/05/03 00:56:25;;;;;;;5.85;4.40;;;;;;;4.49;62.45;102248.78;682665;29;1265;-85
2023/05/03 00:56:46;;;;;;;6.00;4.32;;;;;;;4.47;62.36;102248.66;688176;28;1084;-85
2023/05/03 00:57:07;;;;;;;7.13;4.70;;;;;;;4.48;62.31;102258.19;685466;28;1515;-84
2023/05/03 00:57:29;;;;;;;6.80;4.68;;;;;;;4.40;62.25;102237.75;680055;29;1202;-85
2023/05/03 00:57:49;;;;;;;6.07;4.38;;;;;;;4.39;62.29;102242.00;682836;28;1154;-84
2023/05/03 00:58:10;;;;;;;4.93;4.10;;;;;;;4.37;62.29;102234.09;682932;28;1367;-85
2023/05/03 00:58:32;;;;;;;5.43;4.13;;;;;;;4.40;62.48;102240.31;677210;28;1236;-84
2023/05/03 00:58:53;;;;;;;5.45;4.20;;;;;;;4.45;62.40;102254.47;680233;29;1090;-85
2023/05/03 00:59:14;;;;;;;6.13;4.20;;;;;;;4.38;62.54;102245.38;682806;28;1425;-85
2023/05/03 00:59:35;;;;;;;5.93;4.20;;;;;;;4.42;62.29;102249.97;682838;29;1077;-84
2023/05/03 00:59:57;;;;;;;7.28;4.10;;;;;;;4.38;62.47;102250.53;685409;28;1390;-85
2023/05/03 01:00:19;;;;;;;6.63;4.22;;;;;;;4.32;62.61;102243.22;682864;28;1322;-85
2023/05/03 01:00:40;;;;;;;6.38;4.60;;;;;;;4.35;62.47;102246.03;682888;28;1131;-85
2023/05/03 01:01:01;;;;;;;6.68;4.90;;;;;;;4.40;62.46;102264.47;682875;29;1176;-85
2023/05/03 01:01:22;;;;;;;6.40;4.68;;;;;;;4.32;62.42;102240.63;680055;29;1117;-85
2023/05/03 01:01:46;;;;;;;6.13;4.78;;;;;;;4.42;62.57;102256.84;680234;29;1172;-85
2023/05/03 01:02:07;;;;;;;7.43;5.00;;;;;;;4.36;62.45;102250.41;680047;29;1251;-85
2023/05/03 01:02:28;;;;;;;7.60;5.20;;;;;;;4.34;62.45;102244.22;685245;28;1133;-84
2023/05/03 01:02:49;;;;;;;7.32;5.20;;;;;;;4.42;62.68;102256.84;682525;28;1179;-85
2023/05/03 01:03:10;;;;;;;5.68;5.00;;;;;;;4.36;62.35;102245.22;685464;28;1079;-85
2023/05/03 01:03:31;;;;;;;5.75;4.70;;;;;;;4.33;63.10;102241.50;682612;29;1265;-85
2023/05/03 01:03:51;;;;;;;6.65;4.50;;;;;;;4.32;62.69;102245.81;677536;29;1010;-85
2023/05/03 01:04:12;;;;;;;7.40;4.60;;;;;;;4.34;62.70;102238.13;677641;29;1151;-85
2023/05/03 01:04:32;;;;;;;7.70;4.57;;;;;;;4.32;62.63;102235.47;677380;29;1408;-85
2023/05/03 01:04:54;;;;;;;6.80;4.40;;;;;;;4.42;62.85;102256.84;682870;29;1148;-85
2023/05/03 01:05:15;;;;;;;6.72;4.30;;;;;;;4.36;62.51;102242.66;682745;28;1481;-85
2023/05/03 01:05:50;;;;;;;6.05;4.50;;;;;;;4.35;62.43;102243.44;682777;28;1142;-85
2023/05/03 01:06:30;;;;;;;5.40;4.38;;;;;;;4.43;62.81;102256.06;682842;28;1173;-85
2023/05/03 01:07:02;;;;;;;6.78;4.72;;;;;;;4.45;62.72;102257.97;682664;28;1094;-85
2023/05/03 01:07:39;;;;;;;6.70;4.65;;;;;;;4.37;62.75;102247.03;680124;28;1154;-85
2023/05/03 01:08:17;;;;;;;6.30;4.40;;;;;;;4.38;62.88;102242.78;680113;28;1134;-85
2023/05/03 01:08:46;;;;;;;7.13;4.80;;;;;;;4.40;62.68;102248.97;682739;28;1201;-85
2023/05/03 01:09:35;;;;;;;6.32;4.28;;;;;;;4.47;62.69;102261.56;685527;28;999;-85
2023/05/03 01:10:26;;;;;;;8.93;4.70;;;;;;;4.43;62.68;102263.81;680185;29;1110;-85
2023/05/03 01:11:25;;;;;;;6.78;4.97;;;;;;;4.42;62.59;102259.44;682869;29;918;-85
2023/05/03 01:12:04;;;;;;;6.90;4.30;;;;;;;4.42;62.76;102252.56;682570;28;1244;-85
2023/05/03 01:12:54;;;;;;;8.90;4.10;;;;;;;4.42;63.17;102262.00;685496;28;1028;-85
2023/05/03 01:13:42;;;;;;;5.20;4.40;;;;;;;4.33;62.71;102247.59;682709;29;1237;-85
2023/05/03 01:14:14;;;;;;;6.80;4.30;;;;;;;4.44;62.53;102265.59;682679;28;1193;-85
2023/05/03 01:14:52;;;;;;;6.90;4.30;;;;;;;4.36;62.89;102252.09;677325;29;1342;-85
2023/05/03 01:15:24;;;;;;;11.50;4.68;;;;;;;4.39;62.90;102265.25;677454;29;1152;-85
2023/05/03 01:15:58;;;;;;;9.98;4.60;;;;;;;4.40;62.82;102259.31;685296;28;1353;-84
2023/05/03 01:16:26;;;;;;;7.50;4.53;;;;;;;4.32;63.00;102243.22;682498;28;1493;-85
2023/05/03 01:16:52;;;;;;;7.53;4.70;;;;;;;4.39;62.82;102254.91;685430;28;1130;-84
2023/05/03 01:17:14;;;;;;;7.78;4.60;;;;;;;4.43;62.61;102263.81;682826;28;1167;-85
2023/05/03 01:17:40;;;;;;;7.50;4.32;;;;;;;4.31;62.59;102237.91;679913;28;1122;-85
2023/05/03 01:18:15;;;;;;;6.70;4.40;;;;;;;4.42;62.86;102260.31;677490;29;1302;-85
2023/05/03 01:18:40;;;;;;;5.80;4.55;;;;;;;4.32;62.86;102245.81;677403;29;1080;-85
2023/05/03 01:19:17;;;;;;;6.65;4.50;;;;;;;4.40;62.49;102253.25;680129;29;1047;-84
2023/05/03 01:19:47;;;;;;;6.88;4.43;;;;;;;4.41;62.51;102255.03;682629;29;1054;-85
2023/05/03 01:20:12;;;;;;;6.22;4.10;;;;;;;4.33;62.49;102252.75;685296;28;1063;-85
2023/05/03 01:20:35;;;;;;;6.10;4.40;;;;;;;4.28;62.61;102243.75;677345;29;1318;-84
2023/05/03 01:20:59;;;;;;;8.25;4.72;;;;;;;4.31;62.74;102241.41;682691;29;1359;-85
2023/05/03 01:21:21;;;;;;;8.77;4.85;;;;;;;4.33;62.82;102241.50;679934;29;1394;-85
2023/05/03 01:21:51;;;;;;;9.50;4.57;;;;;;;4.31;62.63;102243.09;679565;29;1374;-85
2023/05/03 01:22:17;;;;;;;8.98;4.72;;;;;;;4.42;62.79;102262.00;682867;28;997;-85
2023/05/03 01:22:49;;;;;;;7.40;4.60;;;;;;;4.32;62.77;102244.88;682657;28;1005;-85
2023/05/03 01:23:16;;;;;;;5.32;4.20;;;;;;;4.31;62.80;102248.25;680281;29;954;-85
2023/05/03 01:24:02;;;;;;;5.28;4.32;;;;;;;4.41;62.57;102261.09;682712;29;1013;-85
2023/05/03 01:24:25;;;;;;;6.90;4.15;;;;;;;4.32;62.75;102243.22;686014;28;1196;-85
2023/05/03 01:25:15;;;;;;;5.95;4.40;;;;;;;4.37;62.62;102253.91;686505;28;1281;-85
2023/05/03 01:25:35;;;;;;;7.40;4.25;;;;;;;4.27;63.01;102236.78;683162;28;1111;-85
2023/05/03 01:25:56;;;;;;;6.20;4.10;;;;;;;4.30;62.83;102243.88;684170;29;1228;-84
2023/05/03 01:26:17;;;;;;;7.20;4.30;;;;;;;4.37;62.58;102259.97;681120;29;1322;-85
2023/05/03 01:26:38;;;;;;;6.90;4.30;;;;;;;4.31;62.65;102250.84;678209;28;1313;-85
2023/05/03 01:26:58;;;;;;;7.80;4.60;;;;;;;4.27;62.82;102241.94;678685;28;1389;-85
2023/05/03 01:27:19;;;;;;;6.97;4.40;;;;;;;4.23;62.86;102242.50;686687;28;1091;-85
2023/05/03 01:27:41;;;;;;;6.90;4.40;;;;;;;4.28;62.88;102254.09;687336;28;1275;-85
2023/05/03 01:28:01;;;;;;;5.95;4.20;;;;;;;4.20;62.96;102245.72;690300;28;1072;-85
2023/05/03 01:28:22;;;;;;;8.00;4.60;;;;;;;4.19;63.12;102249.09;681165;28;1187;-84
2023/05/03 01:28:43;;;;;;;9.93;4.70;;;;;;;4.15;63.19;102238.34;681130;29;1254;-85
2023/05/03 01:29:04;;;;;;;9.95;4.70;;;;;;;4.17;63.12;102249.75;681230;29;1296;-84
2023/05/03 01:29:24;;;;;;;8.15;4.60;;;;;;;4.11;62.97;102240.72;683649;28;1330;-84
2023/05/03 01:29:45;;;;;;;6.68;4.53;;;;;;;4.15;62.87;102246.09;681463;29;1138;-84
2023/05/03 01:30:08;;;;;;;7.30;4.68;;;;;;;4.19;63.09;102253.34;683048;28;1122;-84
2023/05/03 01:30:31;;;;;;;6.47;4.60;;;;;;;4.08;62.88;102240.50;682701;28;1402;-85
2023/05/03 01:30:53;;;;;;;5.70;4.40;;;;;;;4.13;63.36;102247.69;678805;29;1283;-85
2023/05/03 01:31:29;;;;;;;5.75;4.50;;;;;;;4.08;63.23;102242.16;683565;29;1265;-85
2023/05/03 01:31:58;;;;;;;9.95;4.65;;;;;;;4.16;63.23;102251.41;680525;29;1057;-85
2023/05/03 01:32:28;;;;;;;9.90;4.60;;;;;;;4.09;63.48;102242.28;683324;28;1370;-84
2023/05/03 01:33:10;;;;;;;5.65;4.35;;;;;;;4.22;63.05;102263.94;680512;29;1907;-85
2023/05/03 01:33:48;;;;;;;7.00;4.35;;;;;;;4.14;63.19;102245.22;683299;28;1229;-84
2023/05/03 01:34:17;;;;;;;6.68;4.40;;;;;;;4.25;63.13;102261.59;681793;29;1012;-84
2023/05/03 01:34:49;;;;;;;5.88;4.25;;;;;;;4.26;63.66;102258.25;683209;29;1035;-84
2023/05/03 01:35:27;;;;;;;7.13;4.30;;;;;;;4.16;63.18;102246.25;680032;29;1280;-85
2023/05/03 01:35:53;;;;;;;6.78;4.30;;;;;;;4.22;63.23;102253.59;683225;28;1250;-84
2023/05/03 01:36:25;;;;;;;6.78;4.30;;;;;;;4.24;63.53;102257.22;685707;28;1248;-84
2023/05/03 01:36:48;;;;;;;7.63;4.30;;;;;;;4.21;63.51;102257.84;683063;28;1177;-84
2023/05/03 01:37:11;;;;;;;7.68;4.43;;;;;;;4.17;63.33;102248.03;682779;29;1342;-85
2023/05/03 01:37:32;;;;;;;7.13;4.47;;;;;;;4.18;63.46;102241.19;685597;28;1207;-85
2023/05/03 01:37:56;;;;;;;7.63;4.57;;;;;;;4.19;63.23;102245.59;683018;28;1102;-84
2023/05/03 01:38:17;;;;;;;7.47;4.70;;;;;;;4.26;63.37;102260.81;685521;28;1487;-83
2023/05/03 01:38:39;;;;;;;6.10;4.80;;;;;;;4.14;63.34;102242.66;682908;28;1188;-84
2023/05/03 01:39:06;;;;;;;6.15;5.10;;;;;;;4.14;63.44;102250.41;683077;29;1418;-84
2023/05/03 01:39:41;;;;;;;6.32;4.60;;;;;;;4.10;63.29;102238.91;680122;29;1236;-85
2023/05/03 01:40:09;;;;;;;6.78;4.18;;;;;;;4.13;63.33;102252.84;677546;29;1160;-84
2023/05/03 01:40:34;;;;;;;6.38;4.50;;;;;;;4.14;63.39;102255.56;680122;29;1290;-85
2023/05/03 01:41:00;;;;;;;7.32;4.60;;;;;;;4.11;63.08;102247.59;680250;28;1119;-85
2023/05/03 01:41:23;;;;;;;8.46;4.34;;;;;;;4.04;63.21;102248.75;685285;28;1190;-84
2023/05/03 01:41:45;;;;;;;8.77;4.30;;;;;;;3.96;63.35;102240.44;685607;28;1099;-85
2023/05/03 01:42:06;;;;;;;8.90;4.20;;;;;;;4.02;63.41;102258.09;680153;29;1394;-85
2023/05/03 01:42:28;;;;;;;8.45;4.18;;;;;;;4.00;63.55;102251.00;679993;29;1117;-85
2023/05/03 01:42:51;;;;;;;7.75;4.30;;;;;;;3.97;63.82;102246.47;682837;28;1440;-84
2023/05/03 01:43:14;;;;;;;7.97;4.88;;;;;;;4.06;63.84;102267.88;683389;29;1050;-85
2023/05/03 01:43:54;;;;;;;7.68;4.85;;;;;;;4.08;63.56;102271.50;683419;29;1072;-85
2023/05/03 01:44:15;;;;;;;6.10;4.30;;;;;;;3.94;64.01;102247.13;683315;29;1093;-85
2023/05/03 01:44:37;;;;;;;7.50;4.53;;;;;;;4.04;63.92;102264.25;680615;29;1364;-83
2023/05/03 01:44:59;;;;;;;9.25;4.50;;;;;;;3.95;63.76;102243.78;680759;29;1345;-85
2023/05/03 01:45:21;;;;;;;9.55;4.72;;;;;;;4.03;64.14;102262.47;680636;29;1050;-84
2023/05/03 01:45:43;;;;;;;8.32;4.90;;;;;;;4.11;63.64;102261.38;680674;29;1297;-84
2023/05/03 01:46:03;;;;;;;5.97;4.68;;;;;;;4.08;63.66;102250.81;683374;28;1345;-85
2023/05/03 01:46:24;;;;;;;5.73;4.27;;;;;;;4.06;63.63;102247.19;680641;29;1082;-84
2023/05/03 01:46:45;;;;;;;6.40;4.40;;;;;;;4.10;63.60;102269.00;683325;28;1331;-84
2023/05/03 01:47:07;;;;;;;6.93;4.65;;;;;;;4.08;63.48;102255.06;680788;29;1038;-85
2023/05/03 01:47:28;;;;;;;7.30;4.22;;;;;;;4.08;63.66;102248.25;685933;28;1008;-84
2023/05/03 01:47:49;;;;;;;7.07;4.00;;;;;;;4.18;63.48;102261.88;680793;28;1085;-85
2023/05/03 01:48:14;;;;;;;6.03;3.88;;;;;;;4.07;63.56;102254.19;680680;29;1195;-85
2023/05/03 01:48:35;;;;;;;6.10;4.03;;;;;;;4.15;63.23;102261.63;680582;29;1371;-85
2023/05/03 01:48:56;;;;;;;6.50;4.30;;;;;;;4.17;63.19;102271.28;683368;28;1276;-85
2023/05/03 01:49:17;;;;;;;8.53;4.43;;;;;;;4.14;63.28;102259.81;683278;28;1351;-85
2023/05/03 01:49:37;;;;;;;8.35;4.55;;;;;;;4.09;63.14;102254.28;685912;28;1319;-85
2023/05/03 01:49:58;;;;;;;7.20;4.50;;;;;;;4.14;62.84;102264.97;685893;28;1049;-85
2023/05/03 01:50:19;;;;;;;6.53;4.50;;;;;;;4.20;63.22;102278.41;683234;28;1219;-85
2023/05/03 01:50:42;;;;;;;6.80;4.40;;;;;;;4.19;62.91;102264.59;686072;28;992;-84
2023/05/03 01:51:02;;;;;;;6.75;4.40;;;;;;;4.15;63.34;102262.53;683369;29;1191;-85
2023/05/03 01:51:24;;;;;;;5.55;4.18;;;;;;;4.12;63.26;102254.56;678053;29;1371;-84
2023/05/03 01:51:45;;;;;;;5.57;4.00;;;;;;;4.13;63.16;102268.34;678020;29;1241;-85
2023/05/03 01:52:05;;;;;;;5.70;3.97;;;;;;;4.11;63.00;102263.97;683327;28;1111;-85
2023/05/03 01:52:26;;;;;;;5.97;4.05;;;;;;;4.20;63.12;102276.72;685928;28;1309;-85
2023/05/03 01:52:47;;;;;;;6.43;4.18;;;;;;;4.15;63.11;102266.78;683342;28;1907;-85
2023/05/03 01:53:10;;;;;;;7.25;4.55;;;;;;;4.13;63.20;102263.19;685973;28;1209;-85
2023/05/03 01:53:30;;;;;;;9.88;4.65;;;;;;;4.07;63.15;102256.78;681004;28;1186;-85
2023/05/03 01:53:51;;;;;;;9.60;4.80;;;;;;;4.09;63.38;102262.97;680649;29;1411;-85